Time;durP1;ratioP1;P1;durP2;ratioP2;P2;SDS_P1;SDS_P2;PMS_P1;PMS_P2;Temp;Humidity;BMP_temperature;BMP_pressure;BME280_temperature;BME280_humidity;BME280_pressure;Samples;Min_cycle;Max_cycle;Signal;HPM_P1;HPM_P2
2022/11/01 00:00:48;;;;;;;15.05;6.65;;;;;;;15.42;72.93;100765.22;5056345;28;20064;-67
2022/11/01 00:03:13;;;;;;;12.00;5.75;;;;;;;15.47;73.08;100764.38;5054919;28;20039;-67
2022/11/01 00:05:39;;;;;;;13.00;6.40;;;;;;;15.49;73.21;100764.09;5044137;28;20473;-67
2022/11/01 00:08:04;;;;;;;13.00;5.72;;;;;;;15.50;73.14;100755.41;5036848;28;20026;-67
2022/11/01 00:10:30;;;;;;;9.55;6.10;;;;;;;15.54;73.25;100761.25;5034479;28;20075;-68
2022/11/01 00:12:55;;;;;;;12.88;5.82;;;;;;;15.57;72.92;100755.94;5034182;28;20510;-68
2022/11/01 00:15:20;;;;;;;12.10;5.63;;;;;;;15.61;72.72;100751.44;5035106;28;20100;-68
2022/11/01 00:17:45;;;;;;;10.70;6.40;;;;;;;15.64;73.13;100755.59;5035473;28;20037;-68
2022/11/01 00:20:11;;;;;;;10.55;5.75;;;;;;;15.64;72.93;100758.38;5055972;28;20025;-68
2022/11/01 00:22:36;;;;;;;16.10;6.10;;;;;;;15.67;72.90;100750.28;5034238;28;20492;-67
2022/11/01 00:25:02;;;;;;;13.25;6.05;;;;;;;15.68;73.39;100746.38;5033740;28;20033;-68
2022/11/01 00:27:27;;;;;;;15.90;5.80;;;;;;;15.71;73.23;100756.13;5033993;28;20105;-68
2022/11/01 00:29:52;;;;;;;12.00;5.32;;;;;;;15.72;73.10;100746.63;5035554;28;20029;-68
2022/11/01 00:32:17;;;;;;;9.95;5.28;;;;;;;15.76;73.14;100744.06;5033226;28;20465;-68
2022/11/01 00:34:43;;;;;;;7.38;5.10;;;;;;;15.79;73.08;100743.50;5068380;28;20055;-68
2022/11/01 00:37:08;;;;;;;11.27;5.47;;;;;;;15.81;73.33;100746.84;5071015;28;20027;-68
2022/11/01 00:39:33;;;;;;;8.40;4.95;;;;;;;15.85;73.27;100736.75;5034452;28;20065;-68
2022/11/01 00:41:59;;;;;;;12.45;5.57;;;;;;;15.86;73.29;100741.22;5033420;28;20029;-68
2022/11/01 00:44:24;;;;;;;12.55;5.22;;;;;;;15.86;73.36;100741.22;5034160;28;20385;-68
2022/11/01 00:46:49;;;;;;;11.18;5.13;;;;;;;15.85;73.46;100745.97;5033918;28;20033;-68
2022/11/01 00:49:14;;;;;;;8.25;5.45;;;;;;;15.88;73.50;100742.59;5034615;28;20026;-68
2022/11/01 00:51:40;;;;;;;11.90;4.90;;;;;;;15.89;73.49;100746.22;5052366;28;20025;-68
2022/11/01 00:54:05;;;;;;;13.20;5.20;;;;;;;15.90;73.59;100740.34;5044499;28;20060;-68
2022/11/01 00:56:30;;;;;;;12.52;5.70;;;;;;;15.93;73.51;100736.13;5034718;28;20030;-68
2022/11/01 00:58:56;;;;;;;12.40;4.82;;;;;;;15.93;73.58;100736.97;5033460;28;20021;-68
2022/11/01 01:01:21;;;;;;;11.15;5.55;;;;;;;15.94;73.63;100729.38;5037706;28;20033;-68
2022/11/01 01:03:46;;;;;;;11.52;5.03;;;;;;;15.94;73.55;100727.41;5046092;28;20065;-68
2022/11/01 01:06:11;;;;;;;9.73;4.75;;;;;;;15.97;73.30;100728.81;5033311;28;20030;-68
2022/11/01 01:08:37;;;;;;;11.38;5.00;;;;;;;15.95;73.72;100737.50;5032773;28;20037;-68
2022/11/01 01:11:02;;;;;;;9.20;4.57;;;;;;;15.97;74.05;100719.59;5033862;28;20102;-68
2022/11/01 01:13:27;;;;;;;8.70;5.18;;;;;;;15.97;73.76;100716.78;5033668;28;20033;-68
2022/11/01 01:15:52;;;;;;;14.10;5.22;;;;;;;15.97;74.21;100717.63;5035202;28;20036;-68
2022/11/01 01:18:18;;;;;;;12.48;5.53;;;;;;;15.99;74.11;100723.75;5039878;28;20066;-68
2022/11/01 01:20:43;;;;;;;12.98;5.55;;;;;;;16.00;74.21;100716.22;5072744;28;20031;-68
2022/11/01 01:23:09;;;;;;;15.20;5.28;;;;;;;16.02;74.31;100727.94;5073061;28;20464;-68
2022/11/01 01:25:38;;;;;;;10.63;5.97;;;;;;;16.02;74.52;100733.53;5058660;28;20078;-68
2022/11/01 01:28:03;;;;;;;13.98;5.03;;;;;;;16.03;74.34;100729.59;5041133;28;20025;-68
2022/11/01 01:30:28;;;;;;;8.20;4.80;;;;;;;16.04;74.61;100731.28;5032675;28;20036;-67
2022/11/01 01:32:54;;;;;;;9.57;5.22;;;;;;;16.04;74.64;100732.13;5059242;28;20034;-68
2022/11/01 01:35:19;;;;;;;10.38;5.82;;;;;;;16.04;74.75;100722.88;5033443;28;20175;-68
2022/11/01 01:37:44;;;;;;;13.15;5.20;;;;;;;16.05;74.75;100721.75;5032875;28;20029;-68
2022/11/01 01:40:10;;;;;;;10.60;5.07;;;;;;;16.07;74.74;100727.88;5032979;28;20029;-68
2022/11/01 01:42:38;;;;;;;11.48;5.18;;;;;;;16.08;74.80;100736.00;5034020;28;20499;-68
2022/11/01 01:45:03;;;;;;;14.18;5.68;;;;;;;16.07;74.59;100713.88;5052872;28;20029;-68
2022/11/01 01:47:36;;;;;;;10.68;5.57;;;;;;;16.08;74.93;100715.56;5051342;28;20491;-68
2022/11/01 01:50:06;;;;;;;10.93;5.55;;;;;;;16.07;74.97;100711.06;5046919;28;20032;-68
2022/11/01 01:52:36;;;;;;;12.85;5.50;;;;;;;16.07;75.05;100711.94;5036671;28;20128;-68
2022/11/01 01:55:06;;;;;;;12.50;4.97;;;;;;;16.09;75.21;100704.06;5032079;28;20048;-70
2022/11/01 01:57:32;;;;;;;11.32;5.75;;;;;;;16.11;75.05;100720.56;5033315;28;20123;-68
2022/11/01 01:59:58;;;;;;;14.88;4.88;;;;;;;16.12;75.08;100699.84;5033144;28;20477;-68
2022/11/01 02:02:24;;;;;;;19.60;5.53;;;;;;;16.12;74.96;100705.44;5058981;28;20033;-68
2022/11/01 02:04:56;;;;;;;10.98;4.93;;;;;;;16.14;75.10;100711.59;5072793;28;20024;-68
2022/11/01 02:07:23;;;;;;;13.20;5.20;;;;;;;16.16;75.07;100700.94;5045564;28;20126;-68
2022/11/01 02:09:49;;;;;;;9.23;4.80;;;;;;;16.16;74.84;100704.56;5031552;28;20033;-68
2022/11/01 02:12:15;;;;;;;8.70;5.28;;;;;;;16.15;74.97;100721.66;5039050;28;20036;-68
2022/11/01 02:14:43;;;;;;;10.40;5.00;;;;;;;16.15;75.00;100716.03;5049174;28;20029;-68
2022/11/01 02:17:19;;;;;;;9.27;5.25;;;;;;;16.14;75.17;100705.97;5060234;28;20024;-68
2022/11/01 02:20:13;;;;;;;12.48;5.22;;;;;;;16.15;74.92;100719.72;5072664;28;20024;-68
2022/11/01 02:23:01;;;;;;;11.10;5.15;;;;;;;16.16;75.06;100709.34;5051050;28;20030;-68
2022/11/01 02:25:45;;;;;;;8.82;5.00;;;;;;;16.15;74.85;100710.44;5042466;28;20037;-68
2022/11/01 02:28:25;;;;;;;9.02;5.40;;;;;;;16.15;75.02;100727.25;5072244;28;20085;-68
2022/11/01 02:30:59;;;;;;;9.30;5.68;;;;;;;16.15;74.96;100711.31;5059501;28;20036;-68
2022/11/01 02:33:24;;;;;;;7.95;4.60;;;;;;;16.14;74.90;100732.00;5034902;28;20033;-68
2022/11/01 02:36:18;;;;;;;11.38;5.07;;;;;;;16.14;74.71;100720.81;5031654;28;20404;-69
2022/11/01 02:38:49;;;;;;;11.60;5.13;;;;;;;16.13;74.79;100718.31;5037180;28;20089;-68
2022/11/01 02:41:39;;;;;;;9.40;5.03;;;;;;;16.13;74.51;100724.75;5063897;28;20381;-68
2022/11/01 02:44:09;;;;;;;11.15;5.00;;;;;;;16.12;74.76;100725.88;5041562;28;20108;-67
2022/11/01 02:49:25;;;;;;;10.65;4.80;;;;;;;16.11;74.75;100742.97;5032156;28;20587;-68
2022/11/01 02:51:53;;;;;;;8.05;4.88;;;;;;;16.09;75.00;100736.84;5045104;28;20036;-67
2022/11/01 02:54:26;;;;;;;7.88;4.32;;;;;;;16.09;75.18;100734.03;5048369;28;20033;-68
2022/11/01 02:56:51;;;;;;;9.30;4.82;;;;;;;16.08;74.95;100743.56;5049123;28;20108;-67
2022/11/01 02:59:22;;;;;;;9.73;4.38;;;;;;;16.07;75.16;100737.13;5031873;28;20124;-67
2022/11/01 03:01:57;;;;;;;13.52;4.80;;;;;;;16.06;75.21;100740.22;5030556;28;20572;-67
2022/11/01 03:04:22;;;;;;;12.50;5.18;;;;;;;16.06;75.61;100743.84;5031909;28;20148;-67
2022/11/01 03:06:53;;;;;;;12.77;5.15;;;;;;;16.04;75.27;100756.47;5050210;28;20507;-67
2022/11/01 03:09:19;;;;;;;12.60;5.13;;;;;;;16.05;75.10;100755.34;5047543;28;20067;-67
2022/11/01 03:12:01;;;;;;;10.13;5.18;;;;;;;16.05;75.27;100760.94;5031603;28;20433;-67
2022/11/01 03:14:52;;;;;;;11.93;5.68;;;;;;;16.06;75.25;100751.41;5031422;28;20176;-68
2022/11/01 03:17:55;;;;;;;9.55;4.60;;;;;;;16.07;74.91;100758.69;5031506;28;20033;-67
2022/11/01 03:20:48;;;;;;;9.02;4.72;;;;;;;16.03;75.03;100768.78;5031063;28;20025;-68
2022/11/01 03:23:17;;;;;;;7.57;4.03;;;;;;;16.02;73.81;100784.75;5036079;28;20454;-67
2022/11/01 03:25:49;;;;;;;6.43;3.97;;;;;;;16.03;72.87;100778.03;5067800;28;20033;-67
2022/11/01 03:28:52;;;;;;;7.40;3.90;;;;;;;16.05;72.91;100786.97;5055926;28;20370;-67
2022/11/01 03:31:29;;;;;;;8.23;3.60;;;;;;;16.01;72.33;100790.66;5045820;28;20095;-67
2022/11/01 03:34:05;;;;;;;8.18;3.67;;;;;;;16.00;72.06;100803.00;5032573;28;20030;-67
2022/11/01 03:36:37;;;;;;;4.28;2.78;;;;;;;15.99;70.52;100801.28;5037794;28;20124;-67
2022/11/01 03:39:12;;;;;;;6.95;2.85;;;;;;;15.98;70.47;100810.81;5042206;28;20563;-68
2022/11/01 03:41:42;;;;;;;3.78;2.78;;;;;;;15.94;69.08;100822.59;5069415;28;20078;-67
2022/11/01 03:44:10;;;;;;;5.68;2.45;;;;;;;15.91;68.35;100814.78;5062146;28;20108;-67
2022/11/01 03:46:36;;;;;;;4.18;2.08;;;;;;;15.88;66.42;100806.97;5031412;28;20880;-67
2022/11/01 03:49:01;;;;;;;6.95;1.73;;;;;;;15.87;65.00;100819.28;5032831;28;20032;-67
2022/11/01 03:51:26;;;;;;;2.55;1.75;;;;;;;15.83;65.36;100809.78;5042653;28;20029;-67
2022/11/01 03:53:51;;;;;;;4.65;1.27;;;;;;;15.83;64.47;100834.97;5031084;28;20117;-68
2022/11/01 03:56:17;;;;;;;3.90;1.50;;;;;;;15.80;62.02;100841.19;5070005;28;20525;-67
2022/11/01 03:58:43;;;;;;;5.38;1.30;;;;;;;15.75;61.29;100846.78;5066263;28;20029;-67
2022/11/01 04:01:10;;;;;;;4.38;1.30;;;;;;;15.71;61.70;100851.28;5041850;28;20126;-67
2022/11/01 04:03:36;;;;;;;5.47;1.27;;;;;;;15.66;61.02;100857.75;5045399;28;20037;-67
2022/11/01 04:06:02;;;;;;;5.50;1.25;;;;;;;15.64;61.12;100873.09;5030586;28;20141;-67
2022/11/01 04:08:27;;;;;;;3.10;1.27;;;;;;;15.63;60.62;100857.44;5030302;28;20051;-68
2022/11/01 04:10:52;;;;;;;3.50;0.90;;;;;;;15.64;61.26;100873.09;5069700;28;20017;-67
2022/11/01 04:13:18;;;;;;;2.47;1.00;;;;;;;15.64;59.80;100887.09;5063700;28;20064;-68
2022/11/01 04:21:12;;;;;;;3.47;0.88;;;;;;;15.55;59.31;100900.00;5033212;28;20052;-67
2022/11/01 04:23:37;;;;;;;0.90;0.80;;;;;;;15.54;60.25;100907.56;5046300;28;20403;-67
2022/11/01 04:26:04;;;;;;;2.20;1.00;;;;;;;15.50;60.69;100905.63;5072679;28;20024;-67
2022/11/01 04:28:30;;;;;;;2.15;1.10;;;;;;;15.50;60.26;100914.84;5074345;28;20039;-67
2022/11/01 04:30:56;;;;;;;2.90;0.90;;;;;;;15.48;60.35;100914.28;5052093;28;20393;-67
2022/11/01 04:33:21;;;;;;;4.97;1.00;;;;;;;15.43;60.79;100919.91;5042190;28;20065;-67
2022/11/01 04:35:46;;;;;;;3.13;1.02;;;;;;;15.42;60.05;100927.47;5033146;28;20417;-68
2022/11/01 04:38:12;;;;;;;2.90;1.33;;;;;;;15.40;60.12;100940.88;5033549;28;20032;-67
2022/11/01 04:40:39;;;;;;;3.88;0.82;;;;;;;15.38;59.99;100943.13;5049815;28;20029;-67
2022/11/01 04:43:04;;;;;;;2.28;0.80;;;;;;;15.37;59.67;100952.66;5065611;28;20065;-67
2022/11/01 04:45:29;;;;;;;2.85;1.05;;;;;;;15.32;58.76;100949.84;5053013;28;20112;-68
2022/11/01 04:48:02;;;;;;;4.03;0.90;;;;;;;15.26;59.29;100973.38;5053768;28;20029;-67
2022/11/01 04:50:28;;;;;;;6.93;1.10;;;;;;;15.30;59.83;100973.66;5033941;28;20048;-67
2022/11/01 04:52:53;;;;;;;2.38;0.98;;;;;;;15.26;58.97;100956.59;5033278;28;20029;-68
2022/11/01 04:55:18;;;;;;;4.65;1.00;;;;;;;15.28;59.34;100987.06;5067221;28;20494;-68
2022/11/01 04:57:44;;;;;;;3.28;0.95;;;;;;;15.26;59.75;100987.34;5032716;28;20370;-67
2022/11/01 05:00:11;;;;;;;3.55;1.23;;;;;;;15.27;59.69;101007.75;5033392;28;20107;-68
2022/11/01 05:02:37;;;;;;;4.05;0.80;;;;;;;15.27;59.69;101000.19;5040395;28;20033;-68
2022/11/01 05:05:07;;;;;;;2.85;0.88;;;;;;;15.21;59.99;101018.94;5047540;28;20040;-67
2022/11/01 05:07:33;;;;;;;5.43;0.70;;;;;;;15.23;59.15;101013.06;5051266;28;20380;-67
2022/11/01 05:09:59;;;;;;;3.03;1.05;;;;;;;15.23;58.98;101018.66;5044207;28;20029;-68
2022/11/01 05:12:24;;;;;;;5.63;0.93;;;;;;;15.19;58.68;101023.13;5047956;28;20041;-67
2022/11/01 05:14:49;;;;;;;3.55;1.00;;;;;;;15.20;59.29;101020.03;5040178;28;20207;-67
2022/11/01 05:17:15;;;;;;;4.05;0.77;;;;;;;15.11;58.51;101030.13;5046413;28;20029;-68
2022/11/01 05:19:40;;;;;;;5.32;0.95;;;;;;;15.08;58.67;101027.88;5052655;28;20388;-67
2022/11/01 05:22:05;;;;;;;4.93;1.15;;;;;;;15.08;59.32;101039.06;5052505;28;20040;-68
2022/11/01 05:24:31;;;;;;;3.35;0.93;;;;;;;15.09;59.16;101035.16;5052255;28;20072;-67
2022/11/01 05:26:56;;;;;;;4.43;1.13;;;;;;;15.03;58.75;101047.44;5034726;28;21301;-67
2022/11/01 05:29:21;;;;;;;3.50;0.90;;;;;;;15.05;59.49;101048.03;5036281;28;20101;-67
2022/11/01 05:31:46;;;;;;;4.43;1.05;;;;;;;15.02;58.46;101040.19;5033696;28;20420;-67
2022/11/01 05:34:12;;;;;;;4.28;0.95;;;;;;;14.97;58.68;101043.81;5035110;28;20044;-67
2022/11/01 05:36:37;;;;;;;2.25;1.23;;;;;;;14.98;59.40;101044.66;5041293;28;20386;-67
2022/11/01 05:39:03;;;;;;;4.07;1.15;;;;;;;14.98;59.20;101056.69;5032677;28;20496;-68
2022/11/01 05:41:28;;;;;;;3.90;1.02;;;;;;;14.88;59.07;101050.22;5030839;28;20465;-68
2022/11/01 05:43:53;;;;;;;3.42;0.90;;;;;;;14.85;59.37;101057.19;5033098;28;20036;-68
2022/11/01 05:46:18;;;;;;;3.72;0.98;;;;;;;14.93;60.00;101070.66;5050123;28;20028;-67
2022/11/01 05:48:44;;;;;;;3.45;1.00;;;;;;;14.92;59.72;101062.53;5047527;28;20358;-67
2022/11/01 05:51:09;;;;;;;3.75;1.10;;;;;;;14.95;59.89;101053.59;5032241;28;20064;-67
2022/11/01 05:53:35;;;;;;;6.85;1.08;;;;;;;14.91;59.18;101067.28;5032724;28;20025;-67
2022/11/01 05:56:00;;;;;;;2.63;1.00;;;;;;;14.90;58.11;101084.34;5035698;28;21766;-67
2022/11/01 05:58:26;;;;;;;7.32;1.67;;;;;;;14.86;57.41;101070.06;5040649;28;20488;-67
2022/11/01 06:01:05;;;;;;;5.68;1.40;;;;;;;14.91;58.42;101078.47;5035201;28;20040;-67
2022/11/01 06:03:31;;;;;;;8.02;1.55;;;;;;;14.91;56.97;101077.63;5044276;28;20481;-67
2022/11/01 06:05:57;;;;;;;5.65;1.33;;;;;;;14.93;56.55;101081.84;5031655;28;20140;-67
2022/11/01 06:08:23;;;;;;;4.28;1.17;;;;;;;14.89;57.88;101080.69;5038521;28;20116;-67
2022/11/01 06:10:48;;;;;;;6.22;1.50;;;;;;;14.90;56.14;101082.38;5048482;28;20040;-67
2022/11/01 06:13:14;;;;;;;5.32;1.40;;;;;;;14.81;55.90;101092.41;5069349;28;20083;-67
2022/11/01 06:15:39;;;;;;;7.18;1.58;;;;;;;14.83;56.39;101104.16;5054403;28;20022;-67
2022/11/01 06:18:04;;;;;;;6.63;1.40;;;;;;;14.82;56.23;101112.84;5043907;28;20021;-67
2022/11/01 06:20:31;;;;;;;4.47;1.38;;;;;;;14.83;56.35;101120.94;5030805;28;20374;-66
2022/11/01 06:22:57;;;;;;;4.25;1.02;;;;;;;14.83;56.67;101118.13;5030419;28;20702;-67
2022/11/01 06:25:23;;;;;;;4.13;1.13;;;;;;;14.82;56.76;101124.00;5057496;28;20040;-67
2022/11/01 06:27:49;;;;;;;7.25;1.30;;;;;;;14.80;57.06;101115.88;5033828;28;20034;-67
2022/11/01 06:30:14;;;;;;;6.00;1.50;;;;;;;14.79;57.25;101122.59;5041236;28;20021;-66
2022/11/01 06:32:39;;;;;;;3.88;1.35;;;;;;;14.79;57.68;101130.97;5044302;28;20018;-67
2022/11/01 06:35:05;;;;;;;5.97;1.15;;;;;;;14.75;57.68;101134.59;5044527;28;20041;-67
2022/11/01 06:37:31;;;;;;;5.07;1.00;;;;;;;14.72;57.79;101134.03;5030305;28;20041;-68
2022/11/01 06:39:56;;;;;;;6.22;1.20;;;;;;;14.68;57.66;101130.09;5055201;28;20039;-68
2022/11/01 06:42:21;;;;;;;7.05;1.33;;;;;;;14.65;58.24;101136.22;5038297;28;20033;-68
2022/11/01 06:44:47;;;;;;;7.75;1.27;;;;;;;14.63;58.28;101146.84;5046598;28;20487;-69
2022/11/01 06:47:12;;;;;;;4.13;1.00;;;;;;;14.66;58.94;101159.44;5033958;28;20025;-67
2022/11/01 06:49:37;;;;;;;8.35;1.52;;;;;;;14.63;58.25;101154.38;5044902;28;20022;-69
2022/11/01 06:52:04;;;;;;;8.25;1.40;;;;;;;14.62;58.61;101158.28;5030182;28;20085;-68
2022/11/01 06:54:29;;;;;;;6.63;1.25;;;;;;;14.59;58.73;101164.44;5031642;28;20028;-67
2022/11/01 06:56:54;;;;;;;6.30;1.50;;;;;;;14.58;58.43;101165.53;5031740;28;20029;-67
2022/11/01 06:59:26;;;;;;;8.02;1.75;;;;;;;14.58;58.81;101168.31;5040005;28;20358;-66
2022/11/01 07:01:51;;;;;;;5.18;1.17;;;;;;;14.60;58.86;101168.91;5034470;28;20100;-67
2022/11/01 07:04:17;;;;;;;7.10;1.45;;;;;;;14.57;58.62;101170.28;5042488;28;20064;-66
2022/11/01 07:06:42;;;;;;;8.73;1.70;;;;;;;14.58;58.63;101183.16;5042932;28;20024;-66
2022/11/01 07:09:08;;;;;;;7.50;1.10;;;;;;;14.55;58.57;101178.09;5067862;28;20040;-66
2022/11/01 07:11:33;;;;;;;7.47;1.30;;;;;;;14.52;58.93;101191.75;5033375;28;20036;-65
2022/11/01 07:13:59;;;;;;;7.03;1.65;;;;;;;14.54;58.76;101197.91;5034441;28;20025;-65
2022/11/01 07:16:24;;;;;;;10.50;1.67;;;;;;;14.46;58.56;101211.25;5048239;28;20029;-66
2022/11/01 07:18:50;;;;;;;8.57;1.52;;;;;;;14.46;59.11;101211.25;5046788;28;20041;-66
2022/11/01 07:21:16;;;;;;;9.13;1.50;;;;;;;14.45;58.83;101209.56;5049647;28;20091;-67
2022/11/01 07:23:41;;;;;;;7.85;1.50;;;;;;;14.43;58.98;101217.38;5045081;28;20032;-67
2022/11/01 07:26:06;;;;;;;5.47;1.52;;;;;;;14.40;58.62;101217.91;5032485;28;20099;-67
2022/11/01 07:28:31;;;;;;;8.63;1.50;;;;;;;14.38;58.86;101239.69;5030920;28;20029;-67
2022/11/01 07:30:57;;;;;;;8.20;1.70;;;;;;;14.44;58.94;101234.97;5028152;28;20026;-67
2022/11/01 07:33:22;;;;;;;7.25;1.40;;;;;;;14.43;58.94;101233.31;5060033;28;20051;-68
2022/11/01 07:35:48;;;;;;;7.07;1.85;;;;;;;14.42;58.72;101242.78;5062814;28;20056;-69
2022/11/01 07:38:14;;;;;;;14.57;2.00;;;;;;;14.43;58.58;101248.09;5038492;28;20497;-68
2022/11/01 07:40:40;;;;;;;14.70;2.22;;;;;;;14.46;58.56;101250.38;5040015;28;20022;-70
2022/11/01 07:43:06;;;;;;;8.00;1.77;;;;;;;14.47;57.91;101252.03;5030072;28;20543;-66
2022/11/01 07:45:33;;;;;;;5.90;1.40;;;;;;;14.43;57.65;101250.91;5045710;28;20088;-69
2022/11/01 07:48:04;;;;;;;9.23;1.77;;;;;;;14.45;58.12;101264.59;5038265;28;20395;-72
2022/11/01 07:50:32;;;;;;;7.90;1.65;;;;;;;14.39;57.37;101249.75;5044392;28;20021;-70
2022/11/01 07:53:09;;;;;;;7.75;1.60;;;;;;;14.39;58.17;101257.28;5047087;28;20409;-75
2022/11/01 07:55:35;;;;;;;12.75;2.10;;;;;;;14.35;57.86;101256.16;5046821;28;20033;-72
2022/11/01 07:58:01;;;;;;;7.85;1.38;;;;;;;14.39;58.27;101251.72;5049831;28;20033;-71
2022/11/01 08:00:27;;;;;;;9.40;1.88;;;;;;;14.40;57.90;101268.19;5039589;28;20036;-71
2022/11/01 08:02:59;;;;;;;10.23;1.55;;;;;;;14.43;57.90;101262.06;5042604;28;20021;-73
2022/11/01 08:05:24;;;;;;;9.50;2.65;;;;;;;14.47;57.46;101274.38;5034458;28;20131;-70
2022/11/01 08:07:49;;;;;;;11.80;1.90;;;;;;;14.50;57.37;101278.59;5040814;28;20064;-74
2022/11/01 08:10:15;;;;;;;8.27;1.95;;;;;;;14.53;57.64;101282.81;5054084;28;20405;-76
2022/11/01 08:12:40;;;;;;;13.75;2.47;;;;;;;14.55;56.90;101286.19;5042975;28;20033;-71
2022/11/01 08:15:06;;;;;;;7.88;1.77;;;;;;;14.59;57.20;101298.53;5033547;28;20060;-75
2022/11/01 08:17:35;;;;;;;7.43;1.65;;;;;;;14.59;57.40;101295.72;5041042;28;20038;-73
2022/11/01 08:20:00;;;;;;;11.40;1.75;;;;;;;14.61;57.03;101294.31;5053596;28;20037;-71
2022/11/01 08:22:26;;;;;;;14.70;2.13;;;;;;;14.55;56.74;101292.63;5049126;28;20061;-73
2022/11/01 08:24:51;;;;;;;10.93;1.92;;;;;;;14.57;56.95;101295.13;5045001;28;20044;-72
2022/11/01 08:27:16;;;;;;;8.13;1.80;;;;;;;14.56;56.78;101299.06;5053332;28;20036;-72
2022/11/01 08:29:41;;;;;;;16.23;2.42;;;;;;;14.52;56.92;101297.91;5045785;28;20057;-72
2022/11/01 08:32:07;;;;;;;10.30;1.73;;;;;;;14.44;56.69;101305.63;5040830;28;20029;-70
2022/11/01 08:34:32;;;;;;;12.30;2.10;;;;;;;14.50;57.22;101306.53;5033634;28;20025;-69
2022/11/01 08:36:58;;;;;;;9.60;2.20;;;;;;;14.57;57.13;101307.16;5033367;28;20408;-70
2022/11/01 08:39:24;;;;;;;12.35;1.98;;;;;;;14.60;56.80;101308.56;5034209;28;20068;-77
2022/11/01 08:41:50;;;;;;;17.58;2.40;;;;;;;14.65;56.42;101317.81;5035148;28;20099;-72
2022/11/01 08:44:17;;;;;;;14.75;2.60;;;;;;;14.65;56.08;101312.22;5044655;28;20484;-72
2022/11/01 08:46:42;;;;;;;10.82;2.03;;;;;;;14.72;56.42;101312.00;5052792;28;20025;-72
2022/11/01 08:49:12;;;;;;;11.57;2.30;;;;;;;14.77;55.96;101314.81;5046185;28;20024;-78
2022/11/01 08:51:38;;;;;;;8.90;2.08;;;;;;;14.83;55.70;101299.78;5041415;28;20036;-73
2022/11/01 08:54:04;;;;;;;11.38;2.30;;;;;;;14.81;55.83;101318.75;5055233;28;20032;-78
2022/11/01 08:56:30;;;;;;;11.25;2.13;;;;;;;14.83;56.42;101322.13;5048970;28;20041;-72
2022/11/01 08:58:55;;;;;;;12.43;2.03;;;;;;;14.82;56.09;101320.47;5032606;28;20033;-76
2022/11/01 09:01:22;;;;;;;13.05;2.40;;;;;;;14.72;55.36;101325.97;5048404;28;20160;-73
2022/11/01 09:03:48;;;;;;;13.38;2.20;;;;;;;14.72;56.00;101329.59;5040107;28;20483;-75
2022/11/01 09:06:13;;;;;;;15.35;2.03;;;;;;;14.77;56.14;101328.78;5051999;28;20111;-73
2022/11/01 09:08:39;;;;;;;14.13;2.50;;;;;;;14.71;56.03;101341.91;5039453;28;20492;-73
2022/11/01 09:11:05;;;;;;;11.60;2.20;;;;;;;14.72;56.32;101337.16;5051877;28;20064;-70
2022/11/01 09:13:31;;;;;;;10.02;2.20;;;;;;;14.71;56.20;101346.66;5058818;28;20485;-70
2022/11/01 09:15:56;;;;;;;8.20;1.95;;;;;;;14.82;56.06;101331.66;5032109;28;20400;-69
2022/11/01 09:18:22;;;;;;;12.68;2.47;;;;;;;14.93;56.06;101346.50;5035813;28;20029;-72
2022/11/01 09:20:54;;;;;;;10.43;2.63;;;;;;;15.03;55.95;101342.94;5059722;28;20049;-70
2022/11/01 09:23:19;;;;;;;8.63;1.70;;;;;;;15.13;55.50;101352.22;5071232;28;20033;-71
2022/11/01 09:25:44;;;;;;;11.25;2.17;;;;;;;15.25;54.94;101354.81;5072178;28;20145;-71
2022/11/01 09:28:10;;;;;;;12.95;2.00;;;;;;;15.39;55.52;101355.13;5033495;28;20454;-71
2022/11/01 09:30:38;;;;;;;13.18;2.28;;;;;;;15.40;54.71;101348.41;5033643;28;20021;-69
2022/11/01 09:33:04;;;;;;;13.43;2.25;;;;;;;15.54;54.82;101366.38;5036187;28;20388;-69
2022/11/01 09:35:30;;;;;;;12.60;2.22;;;;;;;15.60;53.98;101364.44;5030171;28;20037;-74
2022/11/01 09:38:02;;;;;;;13.88;2.08;;;;;;;15.66;54.79;101374.59;5044778;28;20401;-71
2022/11/01 09:40:34;;;;;;;13.40;2.22;;;;;;;15.71;54.22;101371.78;5037358;28;20021;-69
2022/11/01 09:43:02;;;;;;;9.27;2.28;;;;;;;15.91;54.32;101379.41;5047216;28;20025;-69
2022/11/01 09:45:31;;;;;;;10.98;2.22;;;;;;;16.10;54.02;101388.13;5051167;28;20496;-68
2022/11/01 09:47:57;;;;;;;14.07;2.38;;;;;;;16.22;53.47;101393.47;5045597;28;20033;-65
2022/11/01 09:50:28;;;;;;;13.77;2.53;;;;;;;16.33;53.48;101389.56;5031223;28;20029;-70
2022/11/01 09:52:54;;;;;;;12.85;2.20;;;;;;;16.43;53.67;101389.59;5039294;28;20025;-65
2022/11/01 09:55:44;;;;;;;12.63;2.00;;;;;;;16.50;54.37;101394.91;5062595;28;20033;-69
2022/11/01 09:58:25;;;;;;;11.45;2.10;;;;;;;16.61;53.84;101386.22;5031351;28;20120;-70
2022/11/01 10:01:16;;;;;;;13.55;2.28;;;;;;;16.66;53.62;101402.19;5029799;28;20045;-69
2022/11/01 10:04:07;;;;;;;11.10;2.00;;;;;;;16.74;52.72;101407.28;5038939;28;20084;-72
2022/11/01 10:06:38;;;;;;;13.27;2.40;;;;;;;16.84;52.18;101410.06;5048698;28;20485;-68
2022/11/01 10:09:28;;;;;;;14.15;2.33;;;;;;;16.89;53.61;101410.03;5032170;28;20040;-71
2022/11/01 10:12:08;;;;;;;11.77;2.13;;;;;;;16.91;52.40;101418.19;5033398;28;20063;-70
2022/11/01 10:15:06;;;;;;;12.23;2.53;;;;;;;17.01;52.11;101422.94;5046226;28;20025;-70
2022/11/01 10:17:54;;;;;;;14.10;2.10;;;;;;;17.03;52.41;101427.16;5039021;28;20037;-70
2022/11/01 10:20:25;;;;;;;13.63;2.30;;;;;;;16.92;51.59;101436.69;5030924;28;20162;-70
2022/11/01 10:22:50;;;;;;;14.13;2.53;;;;;;;16.86;52.09;101433.06;5037710;28;20116;-70
2022/11/01 10:25:25;;;;;;;14.27;2.40;;;;;;;16.81;52.35;101421.00;5048099;28;20119;-70
2022/11/01 10:28:23;;;;;;;12.88;2.10;;;;;;;16.88;53.13;101425.19;5036840;28;20052;-70
2022/11/01 10:30:54;;;;;;;9.70;2.20;;;;;;;16.98;51.76;101432.78;5030022;28;20079;-71
2022/11/01 10:33:37;;;;;;;7.80;1.90;;;;;;;16.99;52.50;101437.25;5054105;28;20508;-70
2022/11/01 10:36:12;;;;;;;10.18;2.15;;;;;;;17.04;52.26;101430.78;5039220;28;20041;-71
2022/11/01 10:38:52;;;;;;;10.68;2.20;;;;;;;17.10;52.37;101433.31;5050718;28;20713;-70
2022/11/01 10:41:22;;;;;;;11.82;2.22;;;;;;;17.10;51.57;101429.66;5047835;28;20033;-69
2022/11/01 10:43:57;;;;;;;11.80;2.17;;;;;;;17.13;51.95;101429.94;5061282;28;20032;-71
2022/11/01 10:46:28;;;;;;;12.05;2.80;;;;;;;17.18;51.59;101440.31;5047971;28;20119;-70
2022/11/01 10:48:57;;;;;;;10.40;2.17;;;;;;;17.19;50.91;101436.38;5040550;28;20068;-70
2022/11/01 10:51:25;;;;;;;9.73;1.77;;;;;;;17.25;51.88;101428.78;5033765;28;20536;-70
2022/11/01 10:53:56;;;;;;;8.50;1.90;;;;;;;17.27;51.61;101432.16;5045035;28;20112;-70
2022/11/01 10:56:28;;;;;;;11.27;2.30;;;;;;;17.30;51.44;101423.19;5038095;28;20033;-71
2022/11/01 10:59:05;;;;;;;12.10;2.15;;;;;;;17.33;51.75;101429.06;5047109;28;20035;-71
2022/11/01 11:01:37;;;;;;;12.10;2.83;;;;;;;17.33;50.80;101425.38;5049050;28;20068;-70
2022/11/01 11:04:06;;;;;;;11.43;2.80;;;;;;;17.31;51.00;101428.50;5047211;28;20029;-70
2022/11/01 11:06:33;;;;;;;9.45;2.30;;;;;;;17.27;51.00;101435.81;5049196;28;20416;-69
2022/11/01 11:09:00;;;;;;;11.55;2.10;;;;;;;17.25;51.65;101411.94;5043903;28;20078;-70
2022/11/01 11:11:39;;;;;;;8.40;1.83;;;;;;;17.23;51.85;101433.84;5044116;28;20029;-71
2022/11/01 11:14:06;;;;;;;11.35;2.38;;;;;;;17.22;51.21;101430.22;5051328;28;20109;-73
2022/11/01 11:16:44;;;;;;;8.85;2.22;;;;;;;17.21;51.46;101419.25;5040842;28;20091;-69
2022/11/01 11:19:10;;;;;;;8.13;2.10;;;;;;;17.20;51.33;101417.56;5045306;28;20056;-73
2022/11/01 11:21:35;;;;;;;9.45;1.95;;;;;;;17.22;51.66;101423.75;5036720;28;20551;-76
2022/11/01 11:24:01;;;;;;;10.10;2.33;;;;;;;17.26;51.73;101416.47;5051268;28;20037;-72
2022/11/01 11:26:36;;;;;;;11.52;2.20;;;;;;;17.29;52.14;101419.53;5038356;28;20051;-70
2022/11/01 11:29:01;;;;;;;12.43;2.03;;;;;;;17.31;51.49;101416.44;5033979;28;20087;-71
2022/11/01 11:31:30;;;;;;;10.00;2.10;;;;;;;17.31;51.51;101417.28;5037350;28;20030;-72
2022/11/01 11:33:58;;;;;;;11.13;2.40;;;;;;;17.31;51.99;101428.50;5034435;28;20129;-66
2022/11/01 11:36:28;;;;;;;7.22;1.67;;;;;;;17.28;51.78;101420.63;5042761;28;20049;-70